createdAt,value
2022-09-25T00:02:10.321Z,94.45
2022-09-25T00:04:37.530Z,94.62
2022-09-25T00:07:04.606Z,94.86
2022-09-25T00:09:31.774Z,94.73
2022-09-25T00:11:59.029Z,94.85
2022-09-25T00:14:26.582Z,94.92
2022-09-25T00:16:53.875Z,95.10
2022-09-25T00:19:39.600Z,94.83
2022-09-25T00:22:06.987Z,94.95
2022-09-25T00:24:34.494Z,94.68
2022-09-25T00:27:01.938Z,94.71
2022-09-25T00:29:31.002Z,94.73
2022-09-25T00:31:58.147Z,94.92
2022-09-25T00:34:25.459Z,94.97
2022-09-25T00:36:52.507Z,94.64
2022-09-25T00:39:19.618Z,94.59
2022-09-25T00:41:46.744Z,94.47
2022-09-25T00:44:32.791Z,94.37
2022-09-25T00:46:59.797Z,94.27
2022-09-25T00:49:26.843Z,94.44
2022-09-25T00:51:55.241Z,94.38
2022-09-25T00:54:32.003Z,94.29
2022-09-25T00:57:00.143Z,94.01
2022-09-25T00:59:31.055Z,94.09
2022-09-25T01:01:59.351Z,94.23
2022-09-25T01:04:26.814Z,94.41
2022-09-25T01:06:54.121Z,94.63
2022-09-25T01:09:21.136Z,94.58
2022-09-25T01:11:48.153Z,94.53
2022-09-25T01:14:17.254Z,94.48
2022-09-25T01:16:44.765Z,94.54
2022-09-25T01:19:15.434Z,94.33
2022-09-25T01:21:43.721Z,94.36
2022-09-25T01:24:19.169Z,94.40
2022-09-25T01:26:56.495Z,94.35
2022-09-25T01:29:26.175Z,94.31
2022-09-25T01:32:08.867Z,94.32
2022-09-25T01:34:56.489Z,94.33
2022-09-25T01:37:23.606Z,94.75
2022-09-25T01:39:54.374Z,94.84
2022-09-25T01:42:22.666Z,94.76
2022-09-25T01:44:55.042Z,94.62
2022-09-25T01:47:24.142Z,94.64
2022-09-25T01:49:53.201Z,94.33
2022-09-25T01:52:22.602Z,94.85
2022-09-25T01:54:51.917Z,94.86
2022-09-25T01:57:20.778Z,94.59
2022-09-25T01:59:56.904Z,94.50
2022-09-25T02:02:26.016Z,94.61
2022-09-25T02:04:54.235Z,94.39
2022-09-25T02:07:22.704Z,94.75
2022-09-25T02:09:53.312Z,94.52
2022-09-25T02:12:47.112Z,94.34
2022-09-25T02:15:15.283Z,94.01
2022-09-25T02:18:01.753Z,94.34
2022-09-25T02:20:32.275Z,94.50
2022-09-25T02:23:05.720Z,94.39
2022-09-25T02:25:35.973Z,94.23
2022-09-25T02:28:03.046Z,94.43
2022-09-25T02:30:30.206Z,94.20
2022-09-25T02:32:58.154Z,94.32
2022-09-25T02:35:26.017Z,94.40
2022-09-25T02:37:53.611Z,94.50
2022-09-25T02:40:20.729Z,94.51
2022-09-25T02:42:55.838Z,94.37
2022-09-25T02:45:27.470Z,94.85
2022-09-25T02:47:57.406Z,94.83
2022-09-25T02:50:27.198Z,94.70
2022-09-25T02:52:54.259Z,94.74
2022-09-25T02:55:25.171Z,94.77
2022-09-25T02:57:56.564Z,94.80
2022-09-25T03:00:23.694Z,94.75
2022-09-25T03:02:55.026Z,94.69
2022-09-25T03:05:22.252Z,95.10
2022-09-25T03:08:08.649Z,95.06
2022-09-25T03:10:36.397Z,95.57
2022-09-25T03:13:16.988Z,95.57
2022-09-25T03:15:45.321Z,95.77
2022-09-25T03:18:12.968Z,96.13
2022-09-25T03:20:40.492Z,96.11
2022-09-25T03:23:07.682Z,96.38
2022-09-25T03:25:34.843Z,96.44
2022-09-25T03:28:01.933Z,96.47
2022-09-25T03:30:29.461Z,96.62
2022-09-25T03:32:56.666Z,96.66
2022-09-25T03:35:23.839Z,96.67
2022-09-25T03:37:50.895Z,96.71
2022-09-25T03:40:17.977Z,96.56
2022-09-25T03:42:45.401Z,96.86
2022-09-25T03:45:12.770Z,96.89
2022-09-25T03:47:39.797Z,96.93
2022-09-25T03:50:08.403Z,97.11
2022-09-25T03:52:35.600Z,97.18
2022-09-25T03:55:02.811Z,97.38
2022-09-25T03:57:31.029Z,97.09
2022-09-25T04:00:03.532Z,97.00
2022-09-25T04:02:30.897Z,96.88
2022-09-25T04:04:59.102Z,97.12
2022-09-25T04:07:26.139Z,97.05
2022-09-25T04:09:53.198Z,97.08
2022-09-25T04:12:21.301Z,96.92
2022-09-25T04:14:48.321Z,96.62
2022-09-25T04:17:15.582Z,96.69
2022-09-25T04:19:42.589Z,96.69
2022-09-25T04:22:09.645Z,96.53
2022-09-25T04:24:49.418Z,96.41
2022-09-25T04:27:21.767Z,96.30
2022-09-25T04:29:51.085Z,96.15
2022-09-25T04:32:37.005Z,96.42
2022-09-25T04:35:04.336Z,96.45
2022-09-25T04:37:31.839Z,96.29
2022-09-25T04:39:58.882Z,96.18
2022-09-25T04:42:25.940Z,95.89
2022-09-25T04:44:56.431Z,95.88
2022-09-25T04:47:23.996Z,95.69
2022-09-25T04:49:51.050Z,95.18
2022-09-25T04:52:18.724Z,95.01
2022-09-25T04:54:46.052Z,95.01
2022-09-25T04:57:45.549Z,95.10
2022-09-25T05:00:07.897Z,94.57
2022-09-25T05:02:35.040Z,94.28
2022-09-25T05:05:02.240Z,94.12
2022-09-25T05:07:29.381Z,94.10
2022-09-25T05:09:57.826Z,94.08
2022-09-25T05:12:24.857Z,94.11
2022-09-25T05:14:51.900Z,93.53
2022-09-25T05:17:18.921Z,93.50
2022-09-25T05:19:46.007Z,93.26
2022-09-25T05:22:13.103Z,92.87
2022-09-25T05:24:40.936Z,92.88
2022-09-25T05:27:09.855Z,92.20
2022-09-25T05:29:37.853Z,91.98
2022-09-25T05:32:05.062Z,91.77
2022-09-25T05:34:32.426Z,91.40
2022-09-25T05:36:59.465Z,90.96
2022-09-25T05:39:26.998Z,90.55
2022-09-25T05:41:54.108Z,91.03
2022-09-25T05:44:21.335Z,90.59
2022-09-25T05:46:48.526Z,90.38
2022-09-25T05:49:15.565Z,90.22
2022-09-25T05:51:42.893Z,90.19
2022-09-25T05:54:10.298Z,89.93
2022-09-25T05:56:37.494Z,88.69
2022-09-25T05:59:04.766Z,87.69
2022-09-25T06:01:31.819Z,87.71
2022-09-25T06:03:59.069Z,87.25
2022-09-25T06:06:27.592Z,86.77
2022-09-25T06:08:54.874Z,86.58
2022-09-25T06:11:22.458Z,84.91
2022-09-25T06:13:54.272Z,84.88
2022-09-25T06:16:21.821Z,84.28
2022-09-25T06:18:49.106Z,84.90
2022-09-25T06:21:16.132Z,84.33
2022-09-25T06:23:45.314Z,84.01
2022-09-25T06:26:12.920Z,83.26
2022-09-25T06:28:40.060Z,81.15
2022-09-25T06:31:07.462Z,81.63
2022-09-25T06:33:34.584Z,80.19
2022-09-25T06:36:01.786Z,80.14
2022-09-25T06:38:29.191Z,79.42
2022-09-25T06:41:00.055Z,78.09
2022-09-25T06:43:27.935Z,77.95
2022-09-25T06:45:55.072Z,77.67
2022-09-25T06:48:22.368Z,76.69
2022-09-25T06:50:52.979Z,75.64
2022-09-25T06:53:20.326Z,74.82
2022-09-25T06:55:47.908Z,73.62
2022-09-25T06:58:19.708Z,73.69
2022-09-25T07:00:47.293Z,73.76
2022-09-25T07:03:33.090Z,72.57
2022-09-25T07:06:00.591Z,72.70
2022-09-25T07:08:27.715Z,72.24
2022-09-25T07:10:56.682Z,71.21
2022-09-25T07:13:24.859Z,70.44
2022-09-25T07:15:55.756Z,71.03
2022-09-25T07:18:22.944Z,70.20
2022-09-25T07:20:50.133Z,69.48
2022-09-25T07:23:18.511Z,69.09
2022-09-25T07:25:46.179Z,68.94
2022-09-25T07:28:14.016Z,67.71
2022-09-25T07:30:41.428Z,67.25
2022-09-25T07:33:08.725Z,66.17
2022-09-25T07:35:36.870Z,66.03
2022-09-25T07:38:04.220Z,65.78
2022-09-25T07:40:32.184Z,60.02
2022-09-25T07:43:00.206Z,56.16
2022-09-25T07:45:27.489Z,46.15
2022-09-25T07:47:58.474Z,40.52
2022-09-25T07:50:26.319Z,39.23
2022-09-25T07:52:53.650Z,38.58
2022-09-25T07:55:21.530Z,36.92
2022-09-25T07:57:49.484Z,34.95
2022-09-25T08:00:16.956Z,34.68
2022-09-25T08:02:44.168Z,35.04
2022-09-25T08:05:11.990Z,32.60
2022-09-25T08:07:39.458Z,33.37
2022-09-25T08:10:15.823Z,32.35
2022-09-25T08:12:43.292Z,32.85
2022-09-25T08:15:10.855Z,33.28
2022-09-25T08:17:37.904Z,33.76
2022-09-25T08:20:05.312Z,35.91
2022-09-25T08:22:32.463Z,38.06
2022-09-25T08:25:02.220Z,37.73
2022-09-25T08:27:30.347Z,35.20
2022-09-25T08:29:57.465Z,33.95
2022-09-25T08:32:24.472Z,33.46
2022-09-25T08:34:51.549Z,33.25
2022-09-25T08:37:21.081Z,32.54
2022-09-25T08:39:48.111Z,31.92
2022-09-25T08:42:22.312Z,32.04
2022-09-25T08:45:21.026Z,32.21
2022-09-25T08:48:12.045Z,29.90
2022-09-25T08:50:39.110Z,31.37
2022-09-25T08:53:07.449Z,32.48
2022-09-25T08:55:54.081Z,32.03
2022-09-25T08:58:24.563Z,32.13
2022-09-25T09:00:54.790Z,29.66
2022-09-25T09:03:23.065Z,29.75
2022-09-25T09:05:51.788Z,30.30
2022-09-25T09:08:20.089Z,30.93
2022-09-25T09:11:01.761Z,29.28
2022-09-25T09:13:34.290Z,29.63
2022-09-25T09:16:02.066Z,29.53
2022-09-25T09:18:30.083Z,32.64
2022-09-25T09:20:58.220Z,33.96
2022-09-25T09:23:29.714Z,35.28
2022-09-25T09:26:06.603Z,34.38
2022-09-25T09:28:33.685Z,32.73
2022-09-25T09:31:19.443Z,31.31
2022-09-25T09:33:58.670Z,31.08
2022-09-25T09:36:46.605Z,30.43
2022-09-25T09:39:25.903Z,30.24
2022-09-25T09:42:09.262Z,29.30
2022-09-25T09:44:57.727Z,28.50
2022-09-25T09:47:43.706Z,28.12
2022-09-25T09:50:20.207Z,30.35
2022-09-25T09:52:48.533Z,30.11
2022-09-25T09:55:15.799Z,29.35
2022-09-25T09:57:47.640Z,29.19
2022-09-25T10:00:16.555Z,28.47
2022-09-25T10:02:44.809Z,30.42
2022-09-25T10:05:16.798Z,31.76
2022-09-25T10:07:43.843Z,32.78
2022-09-25T10:10:12.170Z,32.42
2022-09-25T10:12:39.216Z,30.34
2022-09-25T10:15:08.015Z,31.67
2022-09-25T10:17:37.969Z,29.81
2022-09-25T10:20:12.748Z,29.75
2022-09-25T10:22:40.907Z,29.28
2022-09-25T10:25:08.126Z,28.97
2022-09-25T10:27:36.669Z,30.01
2022-09-25T10:30:03.722Z,28.30
2022-09-25T10:32:32.619Z,29.83
2022-09-25T10:34:59.664Z,32.95
2022-09-25T10:37:30.214Z,33.40
2022-09-25T10:40:07.649Z,32.55
2022-09-25T10:42:36.497Z,32.18
2022-09-25T10:45:22.270Z,30.89
2022-09-25T10:48:08.487Z,31.16
2022-09-25T10:50:39.047Z,33.36
2022-09-25T10:53:07.635Z,31.53
2022-09-25T10:55:36.446Z,29.96
2022-09-25T10:58:03.841Z,30.55
2022-09-25T11:00:30.910Z,31.33
2022-09-25T11:02:59.686Z,29.97
2022-09-25T11:05:30.811Z,28.92
2022-09-25T11:07:58.633Z,28.09
2022-09-25T11:10:29.847Z,27.96
2022-09-25T11:12:57.232Z,29.29
2022-09-25T11:15:27.573Z,29.60
2022-09-25T11:17:55.316Z,30.26
2022-09-25T11:20:29.811Z,31.49
2022-09-25T11:23:16.033Z,31.69
2022-09-25T11:25:49.261Z,32.31
2022-09-25T11:28:20.318Z,32.92
2022-09-25T11:30:55.185Z,33.39
2022-09-25T11:33:28.554Z,33.44
2022-09-25T11:36:00.355Z,33.41
2022-09-25T11:39:00.049Z,32.67
2022-09-25T11:41:47.078Z,31.51
2022-09-25T11:44:33.996Z,32.51
2022-09-25T11:47:05.038Z,33.10
2022-09-25T11:49:34.437Z,35.03
2022-09-25T11:52:07.599Z,33.71
2022-09-25T11:54:36.891Z,33.73
2022-09-25T11:57:11.493Z,33.97
2022-09-25T11:59:38.995Z,34.21
2022-09-25T12:02:22.594Z,34.67
2022-09-25T12:04:59.173Z,32.43
2022-09-25T12:07:49.916Z,31.69
2022-09-25T12:10:23.978Z,30.63
2022-09-25T12:13:10.180Z,31.41
2022-09-25T12:15:37.346Z,32.33
2022-09-25T12:18:10.779Z,32.06
2022-09-25T12:20:43.990Z,30.97
2022-09-25T12:23:31.547Z,30.76
2022-09-25T12:25:58.681Z,31.35
2022-09-25T12:28:25.760Z,33.64
2022-09-25T12:31:12.301Z,33.75
2022-09-25T12:33:40.112Z,32.59
2022-09-25T12:36:17.990Z,32.03
2022-09-25T12:38:48.018Z,32.04
2022-09-25T12:41:17.995Z,33.54
2022-09-25T12:43:51.999Z,34.32
2022-09-25T12:46:22.169Z,32.60
2022-09-25T12:48:52.254Z,31.78
2022-09-25T12:51:45.790Z,32.27
2022-09-25T12:54:23.250Z,31.53
2022-09-25T12:56:53.015Z,31.69
2022-09-25T12:59:33.737Z,33.19
2022-09-25T13:02:01.198Z,33.67
2022-09-25T13:04:43.323Z,34.64
2022-09-25T13:07:29.357Z,35.53
2022-09-25T13:09:56.674Z,36.08
2022-09-25T13:12:36.818Z,33.23
2022-09-25T13:15:10.703Z,32.43
2022-09-25T13:17:37.908Z,31.87
2022-09-25T13:20:24.054Z,33.41
2022-09-25T13:22:51.117Z,34.55
2022-09-25T13:25:19.206Z,35.63
2022-09-25T13:27:46.468Z,36.02
2022-09-25T13:30:23.809Z,35.08
2022-09-25T13:32:54.915Z,34.07
2022-09-25T13:35:22.474Z,34.01
2022-09-25T13:37:50.280Z,33.83
2022-09-25T13:40:46.467Z,35.26
2022-09-25T13:43:24.543Z,33.92
2022-09-25T13:46:15.863Z,35.14
2022-09-25T13:48:42.990Z,36.41
2022-09-25T13:51:30.263Z,36.94
2022-09-25T13:54:03.658Z,37.71
2022-09-25T13:56:34.248Z,37.81
2022-09-25T13:59:02.337Z,38.18
2022-09-25T14:01:36.998Z,38.69
2022-09-25T14:04:13.458Z,37.26
2022-09-25T14:06:44.813Z,34.67
2022-09-25T14:09:13.668Z,32.81
2022-09-25T14:11:41.090Z,32.11
2022-09-25T14:14:09.669Z,31.38
2022-09-25T14:16:40.978Z,31.49
2022-09-25T14:19:08.700Z,32.54
2022-09-25T14:21:37.511Z,31.90
2022-09-25T14:24:30.847Z,31.01
2022-09-25T14:26:58.761Z,31.46
2022-09-25T14:29:29.691Z,33.00
2022-09-25T14:32:01.359Z,34.18
2022-09-25T14:34:37.806Z,35.91
2022-09-25T14:37:15.779Z,36.34
2022-09-25T14:39:45.553Z,36.97
2022-09-25T14:42:16.699Z,37.53
2022-09-25T14:44:49.179Z,38.71
2022-09-25T14:47:16.228Z,39.60
2022-09-25T14:49:44.810Z,40.16
2022-09-25T14:52:13.569Z,41.67
2022-09-25T14:54:41.183Z,41.94
2022-09-25T14:57:08.877Z,41.90
2022-09-25T14:59:41.967Z,42.86
2022-09-25T15:02:16.616Z,42.96
2022-09-25T15:04:43.695Z,45.12
2022-09-25T15:07:14.209Z,44.53
2022-09-25T15:09:47.352Z,44.29
2022-09-25T15:12:17.990Z,44.04
2022-09-25T15:15:03.691Z,44.60
2022-09-25T15:17:31.650Z,44.84
2022-09-25T15:19:59.961Z,46.04
2022-09-25T15:22:31.317Z,45.79
2022-09-25T15:24:59.645Z,45.49
2022-09-25T15:27:28.406Z,45.57
2022-09-25T15:29:55.714Z,46.30
2022-09-25T15:32:41.085Z,46.15
2022-09-25T15:35:10.880Z,46.99
2022-09-25T15:37:39.438Z,47.51
2022-09-25T15:40:18.881Z,49.17
2022-09-25T15:42:49.600Z,48.21
2022-09-25T15:45:38.135Z,48.95
2022-09-25T15:48:32.983Z,49.62
2022-09-25T15:51:03.846Z,49.23
2022-09-25T15:53:33.072Z,51.39
2022-09-25T15:56:11.790Z,51.66
2022-09-25T15:58:43.749Z,51.44
2022-09-25T16:01:30.261Z,54.24
2022-09-25T16:04:16.092Z,52.72
2022-09-25T16:06:44.745Z,53.42
2022-09-25T16:09:20.471Z,55.22
2022-09-25T16:11:48.443Z,55.39
2022-09-25T16:14:20.198Z,56.78
2022-09-25T16:16:47.489Z,57.04
2022-09-25T16:19:34.788Z,57.44
2022-09-25T16:22:12.801Z,57.07
2022-09-25T16:24:40.912Z,59.27
2022-09-25T16:27:07.954Z,57.63
2022-09-25T16:29:36.543Z,58.56
2022-09-25T16:32:04.477Z,58.40
2022-09-25T16:34:35.777Z,59.84
2022-09-25T16:37:03.617Z,58.45
2022-09-25T16:39:31.352Z,58.61
2022-09-25T16:42:00.066Z,58.54
2022-09-25T16:44:27.844Z,58.50
2022-09-25T16:46:55.918Z,58.59
2022-09-25T16:49:23.566Z,58.55
2022-09-25T16:51:51.010Z,58.84
2022-09-25T16:54:19.187Z,59.02
2022-09-25T16:56:48.210Z,58.52
2022-09-25T16:59:16.203Z,58.38
2022-09-25T17:01:43.429Z,58.88
2022-09-25T17:04:11.306Z,59.32
2022-09-25T17:06:40.845Z,59.12
2022-09-25T17:09:10.701Z,58.63
2022-09-25T17:11:38.537Z,58.93
2022-09-25T17:14:09.584Z,58.76
2022-09-25T17:16:36.698Z,59.00
2022-09-25T17:19:05.508Z,59.04
2022-09-25T17:21:34.079Z,59.41
2022-09-25T17:24:01.346Z,59.34
2022-09-25T17:26:29.145Z,59.63
2022-09-25T17:28:56.193Z,59.12
2022-09-25T17:31:23.699Z,59.64
2022-09-25T17:33:50.792Z,59.57
2022-09-25T17:36:17.873Z,59.90
2022-09-25T17:38:45.138Z,59.99
2022-09-25T17:41:17.877Z,60.79
2022-09-25T17:43:45.075Z,60.64
2022-09-25T17:46:14.806Z,60.53
2022-09-25T17:48:42.724Z,60.65
2022-09-25T17:51:09.842Z,61.04
2022-09-25T17:53:36.976Z,60.11
2022-09-25T17:56:04.515Z,60.97
2022-09-25T17:58:32.194Z,60.56
2022-09-25T18:01:00.920Z,60.90
2022-09-25T18:03:30.319Z,60.45
2022-09-25T18:05:57.481Z,60.46
2022-09-25T18:08:25.646Z,60.05
2022-09-25T18:10:54.921Z,60.37
2022-09-25T18:13:22.014Z,60.30
2022-09-25T18:15:50.661Z,60.82
2022-09-25T18:18:17.795Z,60.62
2022-09-25T18:21:08.367Z,60.25
2022-09-25T18:23:38.585Z,60.72
2022-09-25T18:26:07.197Z,60.13
2022-09-25T18:28:34.294Z,59.49
2022-09-25T18:31:01.930Z,58.88
2022-09-25T18:33:29.175Z,58.44
2022-09-25T18:35:56.283Z,58.02
2022-09-25T18:38:23.503Z,58.56
2022-09-25T18:40:50.591Z,58.38
2022-09-25T18:43:17.780Z,57.93
2022-09-25T18:45:51.043Z,57.54
2022-09-25T18:48:18.183Z,57.86
2022-09-25T18:50:49.287Z,58.28
2022-09-25T18:53:16.521Z,58.30
2022-09-25T18:55:43.824Z,58.57
2022-09-25T18:58:11.559Z,58.58
2022-09-25T19:00:39.851Z,58.78
2022-09-25T19:03:07.255Z,58.48
2022-09-25T19:05:34.478Z,59.55
2022-09-25T19:08:03.460Z,58.96
2022-09-25T19:10:31.386Z,59.04
2022-09-25T19:12:58.474Z,58.81
2022-09-25T19:15:26.221Z,58.71
2022-09-25T19:17:53.625Z,58.50
2022-09-25T19:20:20.834Z,58.43
2022-09-25T19:22:47.852Z,58.53
2022-09-25T19:25:18.953Z,58.59
2022-09-25T19:27:48.721Z,58.11
2022-09-25T19:30:15.829Z,58.54
2022-09-25T19:32:43.372Z,58.36
2022-09-25T19:35:11.290Z,58.01
2022-09-25T19:37:38.983Z,58.23
2022-09-25T19:40:24.930Z,58.68
2022-09-25T19:42:52.080Z,58.60
2022-09-25T19:45:19.777Z,59.16
2022-09-25T19:47:46.838Z,59.12
2022-09-25T19:50:14.356Z,59.09
2022-09-25T19:52:41.396Z,59.76
2022-09-25T19:55:08.699Z,59.74
2022-09-25T19:57:36.563Z,59.58
2022-09-25T20:00:04.424Z,59.53
2022-09-25T20:02:32.191Z,58.74
2022-09-25T20:05:00.119Z,58.70
2022-09-25T20:07:27.234Z,58.75
2022-09-25T20:09:55.222Z,58.71
2022-09-25T20:12:22.486Z,58.35
2022-09-25T20:14:49.753Z,58.74
2022-09-25T20:17:16.853Z,58.41
2022-09-25T20:19:44.039Z,59.04
2022-09-25T20:22:11.100Z,59.53
2022-09-25T20:24:38.127Z,59.68
2022-09-25T20:27:05.209Z,59.55
2022-09-25T20:29:32.251Z,59.29
2022-09-25T20:31:59.272Z,59.05
2022-09-25T20:34:26.307Z,59.02
2022-09-25T20:36:53.364Z,58.41
2022-09-25T20:39:21.704Z,58.90
2022-09-25T20:41:49.229Z,59.49
2022-09-25T20:44:16.456Z,59.69
2022-09-25T20:46:43.705Z,60.09
2022-09-25T20:49:11.638Z,59.89
2022-09-25T20:51:40.088Z,60.24
2022-09-25T20:54:07.668Z,60.05
2022-09-25T20:56:35.358Z,60.33
2022-09-25T20:59:02.515Z,60.17
2022-09-25T21:01:31.494Z,59.87
2022-09-25T21:03:59.560Z,59.74
2022-09-25T21:06:28.897Z,59.29
2022-09-25T21:08:56.637Z,59.27
2022-09-25T21:11:24.055Z,59.34
2022-09-25T21:13:52.116Z,59.16
2022-09-25T21:16:19.832Z,60.28
2022-09-25T21:18:56.822Z,60.26
2022-09-25T21:21:24.953Z,60.46
2022-09-25T21:23:54.204Z,60.22
2022-09-25T21:26:21.770Z,60.28
2022-09-25T21:28:51.505Z,60.34
2022-09-25T21:31:19.568Z,60.56
2022-09-25T21:33:46.694Z,60.65
2022-09-25T21:36:14.686Z,60.78
2022-09-25T21:38:42.317Z,61.01
2022-09-25T21:41:11.185Z,61.19
2022-09-25T21:43:38.423Z,61.55
2022-09-25T21:46:09.273Z,61.33
2022-09-25T21:48:36.683Z,61.72
2022-09-25T21:51:07.957Z,61.69
2022-09-25T21:53:35.119Z,62.18
2022-09-25T21:56:12.403Z,62.58
2022-09-25T21:58:39.738Z,62.78
2022-09-25T22:01:09.829Z,63.05
2022-09-25T22:03:39.930Z,63.92
2022-09-25T22:06:09.098Z,64.07
2022-09-25T22:08:37.148Z,64.13
2022-09-25T22:11:04.812Z,64.25
2022-09-25T22:13:32.830Z,64.21
2022-09-25T22:16:00.992Z,64.61
2022-09-25T22:18:28.477Z,64.74
2022-09-25T22:20:55.495Z,64.85
2022-09-25T22:23:23.855Z,64.44
2022-09-25T22:25:51.649Z,64.76
2022-09-25T22:28:19.348Z,65.06
2022-09-25T22:30:46.542Z,65.24
2022-09-25T22:33:13.664Z,64.94
2022-09-25T22:35:40.721Z,65.21
2022-09-25T22:38:09.531Z,65.48
2022-09-25T22:40:37.822Z,65.50
2022-09-25T22:43:05.533Z,65.39
2022-09-25T22:45:33.316Z,65.92
2022-09-25T22:48:00.657Z,65.80
2022-09-25T22:50:27.918Z,66.09
2022-09-25T22:52:58.344Z,66.43
2022-09-25T22:55:26.255Z,66.66
2022-09-25T22:57:53.391Z,66.59
2022-09-25T23:00:20.572Z,66.82
2022-09-25T23:02:47.638Z,67.44
2022-09-25T23:05:14.798Z,67.35
2022-09-25T23:07:42.564Z,67.38
2022-09-25T23:10:09.668Z,67.42
2022-09-25T23:12:38.568Z,67.36
2022-09-25T23:15:05.818Z,67.42
2022-09-25T23:17:32.949Z,67.53
2022-09-25T23:20:00.243Z,67.03
2022-09-25T23:22:27.707Z,67.21
2022-09-25T23:24:54.730Z,67.40
2022-09-25T23:27:21.786Z,67.01
2022-09-25T23:29:48.796Z,67.25
2022-09-25T23:32:15.876Z,67.35
2022-09-25T23:34:44.674Z,67.54
2022-09-25T23:37:13.703Z,67.51
2022-09-25T23:39:40.773Z,67.36
2022-09-25T23:42:07.818Z,67.64
2022-09-25T23:44:35.113Z,67.78
2022-09-25T23:47:02.258Z,67.85
2022-09-25T23:49:29.363Z,68.27
2022-09-25T23:51:56.445Z,68.25
2022-09-25T23:54:23.584Z,68.41
2022-09-25T23:56:50.594Z,68.51
2022-09-25T23:59:17.672Z,68.77
